createdAt,value
2018-11-25T00:00:12.081Z,28.07
2018-11-25T00:05:09.707Z,29.87
2018-11-25T00:10:07.271Z,31.47
2018-11-25T00:15:06.463Z,31.20
2018-11-25T00:20:06.588Z,30.73
2018-11-25T00:25:04.949Z,27.33
2018-11-25T00:30:09.071Z,28.00
2018-11-25T00:35:08.051Z,28.63
2018-11-25T00:40:07.351Z,28.33
2018-11-25T00:45:07.525Z,27.83
2018-11-25T00:50:07.140Z,28.10
2018-11-25T00:55:05.708Z,26.83
2018-11-25T01:00:10.306Z,27.87
2018-11-25T01:05:10.567Z,27.93
2018-11-25T01:10:10.596Z,26.70
2018-11-25T01:15:10.184Z,26.77
2018-11-25T01:20:12.004Z,27.77
2018-11-25T01:25:10.235Z,29.10
2018-11-25T01:30:13.117Z,27.20
2018-11-25T01:35:11.492Z,28.77
2018-11-25T01:40:12.925Z,25.20
2018-11-25T01:45:11.442Z,27.17
2018-11-25T01:50:10.127Z,28.70
2018-11-25T01:55:09.149Z,26.77
2018-11-25T02:00:12.402Z,25.40
2018-11-25T02:05:09.992Z,27.07
2018-11-25T02:10:16.273Z,26.10
2018-11-25T02:15:14.659Z,26.27
2018-11-25T02:20:18.434Z,22.80
2018-11-25T02:25:15.874Z,25.67
2018-11-25T02:30:16.379Z,27.00
2018-11-25T02:35:15.755Z,23.83
2018-11-25T02:40:14.009Z,24.60
2018-11-25T02:45:19.637Z,24.07
2018-11-25T02:50:31.932Z,25.40
2018-11-25T02:55:29.340Z,27.30
2018-11-25T03:00:26.785Z,23.27
2018-11-25T03:05:24.298Z,20.67
2018-11-25T03:10:21.728Z,23.53
2018-11-25T03:15:19.133Z,24.03
2018-11-25T03:20:17.141Z,22.93
2018-11-25T03:25:17.403Z,21.30
2018-11-25T03:30:17.851Z,20.73
2018-11-25T03:35:15.311Z,16.97
2018-11-25T03:40:13.732Z,17.40
2018-11-25T03:45:12.492Z,14.67
2018-11-25T03:50:10.777Z,15.17
2018-11-25T03:55:09.364Z,13.80
2018-11-25T04:00:26.017Z,12.43
2018-11-25T04:05:23.464Z,12.20
2018-11-25T04:10:20.875Z,9.67
2018-11-25T04:15:18.993Z,8.93
2018-11-25T04:20:17.358Z,7.70
2018-11-25T04:25:14.777Z,7.30
2018-11-25T04:30:17.255Z,5.90
2018-11-25T04:35:14.704Z,5.73
2018-11-25T04:40:14.292Z,4.10
2018-11-25T04:45:14.461Z,6.33
2018-11-25T04:50:19.727Z,6.77
2018-11-25T04:55:17.147Z,5.87
2018-11-25T05:00:15.821Z,5.90
2018-11-25T05:05:14.145Z,6.60
2018-11-25T05:10:14.211Z,7.37
2018-11-25T05:15:14.589Z,7.97
2018-11-25T05:20:12.653Z,8.47
2018-11-25T05:25:12.403Z,9.13
2018-11-25T05:30:12.512Z,9.03
2018-11-25T05:35:11.283Z,8.53
2018-11-25T05:40:14.567Z,7.80
2018-11-25T05:45:14.775Z,7.90
2018-11-25T05:50:14.148Z,9.13
2018-11-25T05:55:12.023Z,8.80
2018-11-25T06:00:16.668Z,8.70
2018-11-25T06:05:14.198Z,10.10
2018-11-25T06:10:12.455Z,9.40
2018-11-25T06:15:11.875Z,9.80
2018-11-25T06:20:11.430Z,9.17
2018-11-25T06:25:10.326Z,9.93
2018-11-25T06:30:13.117Z,9.07
2018-11-25T06:35:11.772Z,9.60
2018-11-25T06:40:12.108Z,10.70
2018-11-25T06:45:16.110Z,9.50
2018-11-25T06:50:13.544Z,10.27
2018-11-25T06:55:11.961Z,10.33
2018-11-25T07:00:18.108Z,12.20
2018-11-25T07:05:15.671Z,9.47
2018-11-25T07:10:17.143Z,11.90
2018-11-25T07:15:15.668Z,11.83
2018-11-25T07:20:15.069Z,10.80
2018-11-25T07:25:15.485Z,11.20
2018-11-25T07:30:21.741Z,12.27
2018-11-25T07:35:19.347Z,11.90
2018-11-25T07:40:19.606Z,11.83
2018-11-25T07:45:29.703Z,12.93
2018-11-25T07:50:19.525Z,12.53
2018-11-25T07:55:19.085Z,13.10
2018-11-25T08:00:18.886Z,14.30
2018-11-25T08:05:18.515Z,15.77
2018-11-25T08:10:16.068Z,15.10
2018-11-25T08:15:14.540Z,15.67
2018-11-25T08:20:13.024Z,15.83
2018-11-25T08:25:11.592Z,15.47
2018-11-25T08:30:13.175Z,15.03
2018-11-25T08:35:11.303Z,16.87
2018-11-25T08:40:25.177Z,14.43
2018-11-25T08:45:22.601Z,16.97
2018-11-25T08:50:20.269Z,15.67
2018-11-25T08:55:25.971Z,16.90
2018-11-25T09:00:25.479Z,17.03
2018-11-25T09:05:22.935Z,14.00
2018-11-25T09:10:21.104Z,16.80
2018-11-25T09:15:20.735Z,14.43
2018-11-25T09:20:19.306Z,14.60
2018-11-25T09:25:18.116Z,14.90
2018-11-25T09:30:19.741Z,14.10
2018-11-25T09:35:17.430Z,15.50
2018-11-25T09:40:18.001Z,14.20
2018-11-25T09:50:32.928Z,15.13
2018-11-25T09:55:30.331Z,16.90
2018-11-25T10:00:33.608Z,17.27
2018-11-25T10:05:31.068Z,16.77
2018-11-25T10:10:28.528Z,18.00
2018-11-25T10:15:27.221Z,16.53
2018-11-25T10:20:25.903Z,17.73
2018-11-25T10:25:23.317Z,18.50
2018-11-25T10:30:26.526Z,16.53
2018-11-25T10:35:24.060Z,18.40
2018-11-25T10:40:23.310Z,19.30
2018-11-25T10:45:24.810Z,19.43
2018-11-25T10:50:22.363Z,17.53
2018-11-25T10:55:20.502Z,16.90
2018-11-25T11:00:34.156Z,17.33
2018-11-25T11:05:37.113Z,19.60
2018-11-25T11:10:34.531Z,16.77
2018-11-25T11:15:37.649Z,18.43
2018-11-25T11:20:35.103Z,16.97
2018-11-25T11:25:32.513Z,18.50
2018-11-25T11:30:32.414Z,19.07
2018-11-25T11:35:29.856Z,19.33
2018-11-25T11:40:27.300Z,18.90
2018-11-25T11:45:24.731Z,19.50
2018-11-25T11:50:22.253Z,17.77
2018-11-25T11:55:19.665Z,18.10
2018-11-25T12:00:27.441Z,17.90
2018-11-25T12:05:24.842Z,18.13
2018-11-25T12:10:22.303Z,19.80
2018-11-25T12:15:30.319Z,17.63
2018-11-25T12:20:22.196Z,18.60
2018-11-25T12:25:19.604Z,20.00
2018-11-25T12:30:22.567Z,20.73
2018-11-25T12:35:20.104Z,18.63
2018-11-25T12:40:21.265Z,21.40
2018-11-25T12:45:20.031Z,22.57
2018-11-25T12:50:20.878Z,20.90
2018-11-25T12:55:22.488Z,20.17
2018-11-25T13:00:33.194Z,18.90
2018-11-25T13:05:35.553Z,19.70
2018-11-25T13:10:33.517Z,17.80
2018-11-25T13:15:32.016Z,18.30
2018-11-25T13:20:29.818Z,23.80
2018-11-25T13:25:28.758Z,25.03
2018-11-25T13:30:34.842Z,25.83
2018-11-25T13:35:37.635Z,24.23
2018-11-25T13:40:36.223Z,26.27
2018-11-25T13:45:34.331Z,24.63
2018-11-25T13:50:31.938Z,23.73
2018-11-25T13:55:31.862Z,28.97
2018-11-25T14:00:47.978Z,25.10
2018-11-25T14:05:52.513Z,25.50
2018-11-25T14:10:45.387Z,25.33
2018-11-25T14:15:45.044Z,27.67
2018-11-25T14:20:42.507Z,30.70
2018-11-25T14:25:40.648Z,29.80
2018-11-25T14:30:40.660Z,29.80
2018-11-25T14:35:38.319Z,31.37
2018-11-25T14:40:35.988Z,23.50
2018-11-25T14:45:35.834Z,31.33
2018-11-25T14:50:35.056Z,29.37
2018-11-25T14:55:33.375Z,31.73
2018-11-25T15:00:39.271Z,30.90
2018-11-25T15:05:51.082Z,31.97
2018-11-25T15:10:52.984Z,29.33
2018-11-25T15:15:52.876Z,37.33
2018-11-25T15:20:50.559Z,32.57
2018-11-25T15:25:51.464Z,34.43
2018-11-25T15:30:50.220Z,35.20
2018-11-25T15:35:47.760Z,33.70
2018-11-25T15:40:45.175Z,35.67
2018-11-25T15:45:42.658Z,33.03
2018-11-25T15:50:40.108Z,34.03
2018-11-25T15:55:37.577Z,29.10
2018-11-25T16:00:36.205Z,30.23
2018-11-25T16:05:33.588Z,34.43
2018-11-25T16:10:30.966Z,32.63
2018-11-25T16:15:28.603Z,34.47
2018-11-25T16:20:27.093Z,32.00
2018-11-25T16:25:26.952Z,23.93
2018-11-25T16:30:24.889Z,28.97
2018-11-25T16:35:22.316Z,30.33
2018-11-25T16:40:19.844Z,30.33
2018-11-25T16:45:17.310Z,28.67
2018-11-25T16:50:24.469Z,30.60
2018-11-25T16:55:14.411Z,28.90
2018-11-25T17:00:15.210Z,30.83
2018-11-25T17:05:17.195Z,29.60
2018-11-25T17:10:14.688Z,30.57
2018-11-25T17:15:15.686Z,28.83
2018-11-25T17:20:13.128Z,28.00
2018-11-25T17:25:12.024Z,28.67
2018-11-25T17:30:14.712Z,27.10
2018-11-25T17:35:16.747Z,30.93
2018-11-25T17:40:14.200Z,29.30
2018-11-25T17:45:12.581Z,29.60
2018-11-25T17:50:41.110Z,33.10
2018-11-25T17:55:38.563Z,31.17
2018-11-25T18:00:46.263Z,31.73
2018-11-25T18:05:43.712Z,32.07
2018-11-25T18:10:41.103Z,32.30
2018-11-25T18:15:38.514Z,31.70
2018-11-25T18:20:39.623Z,32.50
2018-11-25T18:25:37.127Z,31.27
2018-11-25T18:30:35.736Z,33.40
2018-11-25T18:35:33.143Z,31.57
2018-11-25T18:40:30.543Z,27.30
2018-11-25T18:45:27.977Z,30.47
2018-11-25T18:50:25.377Z,29.00
2018-11-25T18:55:22.096Z,29.17
2018-11-25T19:00:33.819Z,28.67
2018-11-25T19:05:31.293Z,28.73
2018-11-25T19:10:28.792Z,29.40
2018-11-25T19:15:26.232Z,25.30
2018-11-25T19:20:25.895Z,28.53
2018-11-25T19:25:23.280Z,26.57
2018-11-25T19:30:26.785Z,26.50
2018-11-25T19:35:23.900Z,28.93
2018-11-25T19:40:23.864Z,29.00
2018-11-25T19:45:23.386Z,28.20
2018-11-25T19:50:27.404Z,27.97
2018-11-25T19:55:24.812Z,26.63
2018-11-25T20:00:25.212Z,26.80
2018-11-25T20:05:22.660Z,28.00
2018-11-25T20:10:21.276Z,27.60
2018-11-25T20:15:19.381Z,26.27
2018-11-25T20:20:18.796Z,28.63
2018-11-25T20:25:16.683Z,28.70
2018-11-25T20:30:16.394Z,29.53
2018-11-25T20:35:13.840Z,27.97
2018-11-25T20:40:11.222Z,30.23
2018-11-25T20:45:19.851Z,27.17
2018-11-25T20:50:17.299Z,29.03
2018-11-25T20:55:14.687Z,27.27
2018-11-25T21:00:15.290Z,28.00
2018-11-25T21:05:13.779Z,28.70
2018-11-25T21:10:13.059Z,26.70
2018-11-25T21:15:10.911Z,30.07
2018-11-25T21:20:09.720Z,27.03
2018-11-25T21:25:14.960Z,28.77
2018-11-25T21:30:16.796Z,24.80
2018-11-25T21:35:14.217Z,24.83
2018-11-25T21:40:17.672Z,25.77
2018-11-25T21:45:15.946Z,27.23
2018-11-25T21:50:17.592Z,26.13
2018-11-25T21:55:15.964Z,26.33
2018-11-25T22:00:15.601Z,25.43
2018-11-25T22:05:13.431Z,24.10
2018-11-25T22:10:11.939Z,26.30
2018-11-25T22:15:10.472Z,23.30
2018-11-25T22:20:09.179Z,26.00
2018-11-25T22:25:09.504Z,25.20
2018-11-25T22:30:12.543Z,27.50
2018-11-25T22:35:11.213Z,21.80
2018-11-25T22:40:10.632Z,20.93
2018-11-25T22:45:15.932Z,25.13
2018-11-25T22:50:15.174Z,21.07
2018-11-25T22:55:15.838Z,17.47
2018-11-25T23:00:23.348Z,24.00
2018-11-25T23:05:32.195Z,23.17
2018-11-25T23:10:29.604Z,22.23
2018-11-25T23:15:27.090Z,22.70
2018-11-25T23:20:24.499Z,23.40
2018-11-25T23:25:21.875Z,24.80
2018-11-25T23:30:20.627Z,14.03
2018-11-25T23:35:21.542Z,23.83
2018-11-25T23:40:18.995Z,23.67
2018-11-25T23:45:17.119Z,22.83
2018-11-25T23:50:14.992Z,23.27
2018-11-25T23:55:13.238Z,22.40
